St Aqua — A8ZG3 — position and weather

sailwx.info

Track history (hours):
 
Tides and Currents Weather Stations Pressure Air Temp Water Temp Dewpoint Dewpoint Depression Visibility Wind Speed Wind Dir Waves Ship Positions

St Aqua

Last reported at 2017-Sep-17 06:04 UTC. Time now 2017-Sep-21 15:58 UTC.
Position N 37°04' W 072°56'.

Length 155 m; draft 7.2 m.

Type: Ship. MMSI: 636015203.

Date/timePositionNaut miles runAvg speedWind from/ knotsBaromVisibWave heightAir tempDewpointWater temp
2017-Sep-17 06:04N 37°04' W 072°56'112.2
2017-Sep-17 05:59N 37°05' W 072°56'612.5
2017-Sep-17 05:30N 37°11' W 072°58'713.0
2017-Sep-17 05:00N 37°17' W 073°00'14312.6
2017-Sep-16 17:37N 39°36' W 073°47'212.6
2017-Sep-16 17:29N 39°37' W 073°48'612.1
2017-Sep-16 17:00N 39°43' W 073°49'713.0
2017-Sep-16 16:26N 39°50' W 073°50'613.2
2017-Sep-16 15:58N 39°57' W 073°50'813.2
2017-Sep-16 15:23N 40°04' W 073°49'1313.3
2017-Sep-16 14:23N 40°18' W 073°49'513.2
2017-Sep-16 13:59N 40°23' W 073°49'5 9.8
2017-Sep-16 13:30N 40°27' W 073°51'713.0
2017-Sep-16 13:01N 40°30' W 073°58'611.5
2017-Sep-16 12:31N 40°35' W 074°02'3 5.4
2017-Sep-16 11:59N 40°38' W 074°03'0 0.4
2017-Sep-16 11:29N 40°38' W 074°03'0 0.0
2017-Sep-16 10:59N 40°38' W 074°03'0 0.0
2017-Sep-16 10:29N 40°38' W 074°03'0 0.0
2017-Sep-16 09:59N 40°38' W 074°03'0 0.0
2017-Sep-16 09:29N 40°38' W 074°03'0 0.0
2017-Sep-16 08:59N 40°38' W 074°03'0 0.0
2017-Sep-16 08:29N 40°38' W 074°03'0 0.0
2017-Sep-16 07:59N 40°38' W 074°03'0 0.1
2017-Sep-16 07:29N 40°38' W 074°03'0 0.0
2017-Sep-16 06:59N 40°38' W 074°03'0 0.1
2017-Sep-16 06:29N 40°38' W 074°03'0 0.1
2017-Sep-16 05:59N 40°38' W 074°03'0 0.3
2017-Sep-16 05:29N 40°38' W 074°03'0 0.1
2017-Sep-16 04:59N 40°38' W 074°03'0 0.0
2017-Sep-16 04:29N 40°38' W 074°03'0 0.0
2017-Sep-16 03:59N 40°38' W 074°03'0 0.0
2017-Sep-16 03:29N 40°38' W 074°03'0 0.0
2017-Sep-16 02:59N 40°38' W 074°03'0 0.0
2017-Sep-16 02:29N 40°38' W 074°03'0 0.0
2017-Sep-16 01:59N 40°38' W 074°03'0 0.1
2017-Sep-16 01:29N 40°38' W 074°03'0 0.0
2017-Sep-16 00:59N 40°38' W 074°03'0 0.0
2017-Sep-16 00:29N 40°38' W 074°03'0 0.0
2017-Sep-15 23:59N 40°38' W 074°03'0 0.7
2017-Sep-15 23:30N 40°38' W 074°03'5 9.7
2017-Sep-15 23:00N 40°33' W 074°02'4 8.9
2017-Sep-15 22:30N 40°29' W 074°05'610.4
2017-Sep-15 21:55N 40°30' W 074°13'2 0.2
2017-Sep-15 11:24N 40°31' W 074°15'0 0.0
2017-Sep-15 11:00N 40°31' W 074°15'0 0.0
2017-Sep-15 07:36N 40°31' W 074°15'0 0.1
2017-Sep-15 07:30N 40°31' W 074°15'0 0.0
2017-Sep-14 23:19N 40°32' W 074°15'2 5.2
2017-Sep-14 23:00N 40°33' W 074°15'3 5.4
2017-Sep-14 22:30N 40°35' W 074°12'3 6.3
2017-Sep-14 22:00N 40°38' W 074°12'4 7.7
2017-Sep-14 21:30N 40°39' W 074°07'1 1.0
2017-Sep-14 20:59N 40°39' W 074°06'0 0.0
2017-Sep-14 20:29N 40°39' W 074°06'0 0.0
2017-Sep-14 19:59N 40°39' W 074°06'0 0.0
2017-Sep-14 19:29N 40°39' W 074°06'0 0.0
2017-Sep-14 18:59N 40°39' W 074°06'0 0.0
2017-Sep-14 18:29N 40°39' W 074°06'0 0.0
2017-Sep-14 17:59N 40°39' W 074°06'0 0.0
2017-Sep-14 17:29N 40°39' W 074°06'0 0.0
2017-Sep-14 16:59N 40°39' W 074°06'0 0.0
2017-Sep-14 16:29N 40°39' W 074°06'0 0.0
2017-Sep-14 15:59N 40°39' W 074°06'0 0.0
2017-Sep-14 15:29N 40°39' W 074°06'0 0.0
2017-Sep-14 14:59N 40°39' W 074°06'0 0.0
2017-Sep-14 14:26N 40°39' W 074°06'0 0.0
2017-Sep-14 13:59N 40°39' W 074°06'0 0.0
2017-Sep-14 13:29N 40°39' W 074°06'0 0.0
2017-Sep-14 12:59N 40°39' W 074°06'0 0.0
2017-Sep-14 12:29N 40°39' W 074°06'0 0.0
2017-Sep-14 11:59N 40°39' W 074°06'0 0.0
2017-Sep-14 11:29N 40°39' W 074°06'0 0.0
2017-Sep-14 10:59N 40°39' W 074°06'0 0.0
2017-Sep-14 10:29N 40°39' W 074°06'0 0.0
2017-Sep-14 09:59N 40°39' W 074°06'0 0.0
2017-Sep-14 09:29N 40°39' W 074°06'0 0.0
2017-Sep-14 08:59N 40°39' W 074°06'0 0.0
2017-Sep-14 08:29N 40°39' W 074°06'0 0.0
2017-Sep-14 07:59N 40°39' W 074°06'0 0.0
2017-Sep-14 07:29N 40°39' W 074°06'0 0.0
2017-Sep-14 06:59N 40°39' W 074°06'0 0.0
2017-Sep-14 06:29N 40°39' W 074°06'0 0.0
2017-Sep-14 05:59N 40°39' W 074°06'0 0.0
2017-Sep-14 05:29N 40°39' W 074°06'0 0.0
2017-Sep-14 04:59N 40°39' W 074°06'0 0.0
2017-Sep-14 04:29N 40°39' W 074°06'0 0.0
2017-Sep-14 03:59N 40°39' W 074°06'0 0.0
2017-Sep-14 03:29N 40°39' W 074°06'0 0.0
2017-Sep-14 02:59N 40°39' W 074°06'0 0.0
2017-Sep-14 02:29N 40°39' W 074°06'0 0.0
2017-Sep-14 01:59N 40°39' W 074°06'0 0.0
2017-Sep-14 01:29N 40°39' W 074°06'0 0.0
2017-Sep-14 00:59N 40°39' W 074°06'0 0.0
2017-Sep-14 00:29N 40°39' W 074°06'0 0.0
2017-Sep-13 23:59N 40°39' W 074°06'0 0.0
2017-Sep-13 23:29N 40°39' W 074°06'0 0.0
2017-Sep-13 22:59N 40°39' W 074°06'0 0.0
2017-Sep-13 22:29N 40°39' W 074°06'0 0.0
2017-Sep-13 21:59N 40°39' W 074°06'0 0.0
2017-Sep-13 21:29N 40°39' W 074°06'0 0.0
2017-Sep-13 20:59N 40°39' W 074°06'0 0.0
2017-Sep-13 20:29N 40°39' W 074°06'0 0.0
2017-Sep-13 19:59N 40°39' W 074°06'0 0.0
2017-Sep-13 19:29N 40°39' W 074°06'0 0.0
2017-Sep-13 18:59N 40°39' W 074°06'0 0.0
2017-Sep-13 18:29N 40°39' W 074°06'0 0.0
2017-Sep-13 17:59N 40°39' W 074°06'0 0.0
2017-Sep-13 17:26N 40°39' W 074°06'0 0.0
2017-Sep-13 16:59N 40°39' W 074°06'0 0.0
2017-Sep-13 16:29N 40°39' W 074°06'0 0.0
2017-Sep-13 15:59N 40°39' W 074°06'0 0.0
2017-Sep-13 15:29N 40°39' W 074°06'0 0.0
2017-Sep-13 14:59N 40°39' W 074°06'0 0.0
2017-Sep-13 14:29N 40°39' W 074°06'0 0.0
2017-Sep-13 13:59N 40°39' W 074°06'0 0.0
2017-Sep-13 13:29N 40°39' W 074°06'0 0.0
2017-Sep-13 12:59N 40°39' W 074°06'0 0.0
2017-Sep-13 12:29N 40°39' W 074°06'0 0.0
2017-Sep-13 11:59N 40°39' W 074°06'0 0.0
2017-Sep-13 11:30N 40°39' W 074°06'0 0.0
2017-Sep-13 10:59N 40°39' W 074°06'0 0.0
2017-Sep-13 10:30N 40°39' W 074°06'0 0.0
2017-Sep-13 09:59N 40°39' W 074°06'0 0.0
2017-Sep-13 09:29N 40°39' W 074°06'0 0.0
2017-Sep-13 09:01N 40°39' W 074°06'0 0.1
2017-Sep-13 08:31N 40°39' W 074°06'2 3.5
2017-Sep-13 08:01N 40°39' W 074°04'2 4.7
2017-Sep-13 07:30N 40°36' W 074°03'5 9.5
2017-Sep-13 07:01N 40°32' W 074°01'611.0
2017-Sep-13 06:31N 40°29' W 073°55'510.3
2017-Sep-13 06:01N 40°27' W 073°49'3 5.0
2017-Sep-13 05:30N 40°24' W 073°47'4 8.0
2017-Sep-13 05:00N 40°21' W 073°46'4 7.6
2017-Sep-13 04:30N 40°17' W 073°46'4 7.7
2017-Sep-13 04:00N 40°13' W 073°45'4 7.5
2017-Sep-13 03:30N 40°09' W 073°45'4 8.2
2017-Sep-13 03:01N 40°05' W 073°44'611.6
2017-Sep-13 02:30N 39°59' W 073°43'611.8
2017-Sep-13 02:00N 39°53' W 073°43'612.0
2017-Sep-13 01:30N 39°47' W 073°42'611.9
2017-Sep-13 01:01N 39°42' W 073°40'611.7
2017-Sep-13 00:30N 39°36' W 073°39'611.6
2017-Sep-13 00:00N 39°30' W 073°37'611.6
2017-Sep-12 23:31N 39°25' W 073°36'611.6
2017-Sep-12 23:00N 39°19' W 073°34'611.3
2017-Sep-12 22:30N 39°13' W 073°32'611.4
2017-Sep-12 22:00N 39°08' W 073°30'611.5
2017-Sep-12 21:30N 39°03' W 073°28'611.1
2017-Sep-12 21:00N 38°57' W 073°26'510.8
2017-Sep-12 20:30N 38°52' W 073°24'4 8.4
2017-Sep-12 19:59N 38°48' W 073°23'5 9.4
2017-Sep-12 19:29N 38°43' W 073°22'611.2
2017-Sep-12 18:59N 38°38' W 073°21'711.6
2017-Sep-12 18:21N 38°31' W 073°18'411.6
2017-Sep-12 18:00N 38°26' W 073°17'2812.3
2017-Sep-12 15:41N 37°59' W 073°08'213.6
2017-Sep-12 15:30N 37°56' W 073°08'713.5
2017-Sep-12 15:00N 37°50' W 073°06'713.5
2017-Sep-12 14:28N 37°43' W 073°04'613.5
2017-Sep-12 14:01N 37°37' W 073°02'713.3
2017-Sep-12 13:30N 37°30' W 073°00'713.3
2017-Sep-12 13:00N 37°24' W 072°59'713.3
2017-Sep-12 12:30N 37°17' W 072°57'  
Track history (hours):
 
Tides and Currents Weather Stations Pressure Air Temp Water Temp Dewpoint Dewpoint Depression Visibility Wind Speed Wind Dir Waves Ship Positions

St Aqua

Last reported at 2017-Sep-17 06:04 UTC. Time now 2017-Sep-21 15:58 UTC.
Position N 37°04' W 072°56'.

Length 155 m; draft 7.2 m.

Type: Ship. MMSI: 636015203.

Date/timePositionNaut miles runAvg speedWind from/ knotsBaromVisibWave heightAir tempDewpointWater temp
2017-Sep-17 06:04N 37°04' W 072°56'112.2
2017-Sep-17 05:59N 37°05' W 072°56'612.5
2017-Sep-17 05:30N 37°11' W 072°58'713.0
2017-Sep-17 05:00N 37°17' W 073°00'14312.6
2017-Sep-16 17:37N 39°36' W 073°47'212.6
2017-Sep-16 17:29N 39°37' W 073°48'612.1
2017-Sep-16 17:00N 39°43' W 073°49'713.0
2017-Sep-16 16:26N 39°50' W 073°50'613.2
2017-Sep-16 15:58N 39°57' W 073°50'813.2
2017-Sep-16 15:23N 40°04' W 073°49'1313.3
2017-Sep-16 14:23N 40°18' W 073°49'513.2
2017-Sep-16 13:59N 40°23' W 073°49'5 9.8
2017-Sep-16 13:30N 40°27' W 073°51'713.0
2017-Sep-16 13:01N 40°30' W 073°58'611.5
2017-Sep-16 12:31N 40°35' W 074°02'3 5.4
2017-Sep-16 11:59N 40°38' W 074°03'0 0.4
2017-Sep-16 11:29N 40°38' W 074°03'0 0.0
2017-Sep-16 10:59N 40°38' W 074°03'0 0.0
2017-Sep-16 10:29N 40°38' W 074°03'0 0.0
2017-Sep-16 09:59N 40°38' W 074°03'0 0.0
2017-Sep-16 09:29N 40°38' W 074°03'0 0.0
2017-Sep-16 08:59N 40°38' W 074°03'0 0.0
2017-Sep-16 08:29N 40°38' W 074°03'0 0.0
2017-Sep-16 07:59N 40°38' W 074°03'0 0.1
2017-Sep-16 07:29N 40°38' W 074°03'0 0.0
2017-Sep-16 06:59N 40°38' W 074°03'0 0.1
2017-Sep-16 06:29N 40°38' W 074°03'0 0.1
2017-Sep-16 05:59N 40°38' W 074°03'0 0.3
2017-Sep-16 05:29N 40°38' W 074°03'0 0.1
2017-Sep-16 04:59N 40°38' W 074°03'0 0.0
2017-Sep-16 04:29N 40°38' W 074°03'0 0.0
2017-Sep-16 03:59N 40°38' W 074°03'0 0.0
2017-Sep-16 03:29N 40°38' W 074°03'0 0.0
2017-Sep-16 02:59N 40°38' W 074°03'0 0.0
2017-Sep-16 02:29N 40°38' W 074°03'0 0.0
2017-Sep-16 01:59N 40°38' W 074°03'0 0.1
2017-Sep-16 01:29N 40°38' W 074°03'0 0.0
2017-Sep-16 00:59N 40°38' W 074°03'0 0.0
2017-Sep-16 00:29N 40°38' W 074°03'0 0.0
2017-Sep-15 23:59N 40°38' W 074°03'0 0.7
2017-Sep-15 23:30N 40°38' W 074°03'5 9.7
2017-Sep-15 23:00N 40°33' W 074°02'4 8.9
2017-Sep-15 22:30N 40°29' W 074°05'610.4
2017-Sep-15 21:55N 40°30' W 074°13'2 0.2
2017-Sep-15 11:24N 40°31' W 074°15'0 0.0
2017-Sep-15 11:00N 40°31' W 074°15'0 0.0
2017-Sep-15 07:36N 40°31' W 074°15'0 0.1
2017-Sep-15 07:30N 40°31' W 074°15'0 0.0
2017-Sep-14 23:19N 40°32' W 074°15'2 5.2
2017-Sep-14 23:00N 40°33' W 074°15'3 5.4
2017-Sep-14 22:30N 40°35' W 074°12'3 6.3
2017-Sep-14 22:00N 40°38' W 074°12'4 7.7
2017-Sep-14 21:30N 40°39' W 074°07'1 1.0
2017-Sep-14 20:59N 40°39' W 074°06'0 0.0
2017-Sep-14 20:29N 40°39' W 074°06'0 0.0
2017-Sep-14 19:59N 40°39' W 074°06'0 0.0
2017-Sep-14 19:29N 40°39' W 074°06'0 0.0
2017-Sep-14 18:59N 40°39' W 074°06'0 0.0
2017-Sep-14 18:29N 40°39' W 074°06'0 0.0
2017-Sep-14 17:59N 40°39' W 074°06'0 0.0
2017-Sep-14 17:29N 40°39' W 074°06'0 0.0
2017-Sep-14 16:59N 40°39' W 074°06'0 0.0
2017-Sep-14 16:29N 40°39' W 074°06'0 0.0
2017-Sep-14 15:59N 40°39' W 074°06'0 0.0
2017-Sep-14 15:29N 40°39' W 074°06'0 0.0
2017-Sep-14 14:59N 40°39' W 074°06'0 0.0
2017-Sep-14 14:26N 40°39' W 074°06'0 0.0
2017-Sep-14 13:59N 40°39' W 074°06'0 0.0
2017-Sep-14 13:29N 40°39' W 074°06'0 0.0
2017-Sep-14 12:59N 40°39' W 074°06'0 0.0
2017-Sep-14 12:29N 40°39' W 074°06'0 0.0
2017-Sep-14 11:59N 40°39' W 074°06'0 0.0
2017-Sep-14 11:29N 40°39' W 074°06'0 0.0
2017-Sep-14 10:59N 40°39' W 074°06'0 0.0
2017-Sep-14 10:29N 40°39' W 074°06'0 0.0
2017-Sep-14 09:59N 40°39' W 074°06'0 0.0
2017-Sep-14 09:29N 40°39' W 074°06'0 0.0
2017-Sep-14 08:59N 40°39' W 074°06'0 0.0
2017-Sep-14 08:29N 40°39' W 074°06'0 0.0
2017-Sep-14 07:59N 40°39' W 074°06'0 0.0
2017-Sep-14 07:29N 40°39' W 074°06'0 0.0
2017-Sep-14 06:59N 40°39' W 074°06'0 0.0
2017-Sep-14 06:29N 40°39' W 074°06'0 0.0
2017-Sep-14 05:59N 40°39' W 074°06'0 0.0
2017-Sep-14 05:29N 40°39' W 074°06'0 0.0
2017-Sep-14 04:59N 40°39' W 074°06'0 0.0
2017-Sep-14 04:29N 40°39' W 074°06'0 0.0
2017-Sep-14 03:59N 40°39' W 074°06'0 0.0
2017-Sep-14 03:29N 40°39' W 074°06'0 0.0
2017-Sep-14 02:59N 40°39' W 074°06'0 0.0
2017-Sep-14 02:29N 40°39' W 074°06'0 0.0
2017-Sep-14 01:59N 40°39' W 074°06'0 0.0
2017-Sep-14 01:29N 40°39' W 074°06'0 0.0
2017-Sep-14 00:59N 40°39' W 074°06'0 0.0
2017-Sep-14 00:29N 40°39' W 074°06'0 0.0
2017-Sep-13 23:59N 40°39' W 074°06'0 0.0
2017-Sep-13 23:29N 40°39' W 074°06'0 0.0
2017-Sep-13 22:59N 40°39' W 074°06'0 0.0
2017-Sep-13 22:29N 40°39' W 074°06'0 0.0
2017-Sep-13 21:59N 40°39' W 074°06'0 0.0
2017-Sep-13 21:29N 40°39' W 074°06'0 0.0
2017-Sep-13 20:59N 40°39' W 074°06'0 0.0
2017-Sep-13 20:29N 40°39' W 074°06'0 0.0
2017-Sep-13 19:59N 40°39' W 074°06'0 0.0
2017-Sep-13 19:29N 40°39' W 074°06'0 0.0
2017-Sep-13 18:59N 40°39' W 074°06'0 0.0
2017-Sep-13 18:29N 40°39' W 074°06'0 0.0
2017-Sep-13 17:59N 40°39' W 074°06'0 0.0
2017-Sep-13 17:26N 40°39' W 074°06'0 0.0
2017-Sep-13 16:59N 40°39' W 074°06'0 0.0
2017-Sep-13 16:29N 40°39' W 074°06'0 0.0
2017-Sep-13 15:59N 40°39' W 074°06'0 0.0
2017-Sep-13 15:29N 40°39' W 074°06'0 0.0
2017-Sep-13 14:59N 40°39' W 074°06'0 0.0
2017-Sep-13 14:29N 40°39' W 074°06'0 0.0
2017-Sep-13 13:59N 40°39' W 074°06'0 0.0
2017-Sep-13 13:29N 40°39' W 074°06'0 0.0
2017-Sep-13 12:59N 40°39' W 074°06'0 0.0
2017-Sep-13 12:29N 40°39' W 074°06'0 0.0
2017-Sep-13 11:59N 40°39' W 074°06'0 0.0
2017-Sep-13 11:30N 40°39' W 074°06'0 0.0
2017-Sep-13 10:59N 40°39' W 074°06'0 0.0
2017-Sep-13 10:30N 40°39' W 074°06'0 0.0
2017-Sep-13 09:59N 40°39' W 074°06'0 0.0
2017-Sep-13 09:29N 40°39' W 074°06'0 0.0
2017-Sep-13 09:01N 40°39' W 074°06'0 0.1
2017-Sep-13 08:31N 40°39' W 074°06'2 3.5
2017-Sep-13 08:01N 40°39' W 074°04'2 4.7
2017-Sep-13 07:30N 40°36' W 074°03'5 9.5
2017-Sep-13 07:01N 40°32' W 074°01'611.0
2017-Sep-13 06:31N 40°29' W 073°55'510.3
2017-Sep-13 06:01N 40°27' W 073°49'3 5.0
2017-Sep-13 05:30N 40°24' W 073°47'4 8.0
2017-Sep-13 05:00N 40°21' W 073°46'4 7.6
2017-Sep-13 04:30N 40°17' W 073°46'4 7.7
2017-Sep-13 04:00N 40°13' W 073°45'4 7.5
2017-Sep-13 03:30N 40°09' W 073°45'4 8.2
2017-Sep-13 03:01N 40°05' W 073°44'611.6
2017-Sep-13 02:30N 39°59' W 073°43'611.8
2017-Sep-13 02:00N 39°53' W 073°43'612.0
2017-Sep-13 01:30N 39°47' W 073°42'611.9
2017-Sep-13 01:01N 39°42' W 073°40'611.7
2017-Sep-13 00:30N 39°36' W 073°39'611.6
2017-Sep-13 00:00N 39°30' W 073°37'611.6
2017-Sep-12 23:31N 39°25' W 073°36'611.6
2017-Sep-12 23:00N 39°19' W 073°34'611.3
2017-Sep-12 22:30N 39°13' W 073°32'611.4
2017-Sep-12 22:00N 39°08' W 073°30'611.5
2017-Sep-12 21:30N 39°03' W 073°28'611.1
2017-Sep-12 21:00N 38°57' W 073°26'510.8
2017-Sep-12 20:30N 38°52' W 073°24'4 8.4
2017-Sep-12 19:59N 38°48' W 073°23'5 9.4
2017-Sep-12 19:29N 38°43' W 073°22'611.2
2017-Sep-12 18:59N 38°38' W 073°21'711.6
2017-Sep-12 18:21N 38°31' W 073°18'411.6
2017-Sep-12 18:00N 38°26' W 073°17'2812.3
2017-Sep-12 15:41N 37°59' W 073°08'213.6
2017-Sep-12 15:30N 37°56' W 073°08'713.5
2017-Sep-12 15:00N 37°50' W 073°06'713.5
2017-Sep-12 14:28N 37°43' W 073°04'613.5
2017-Sep-12 14:01N 37°37' W 073°02'713.3
2017-Sep-12 13:30N 37°30' W 073°00'713.3
2017-Sep-12 13:00N 37°24' W 072°59'713.3
2017-Sep-12 12:30N 37°17' W 072°57'  

Dump ship's entire track history